General Aviation Weather

Text Reports

Enter one or more of the following location identifiers separated by a space:

Zip Code, Four-Character ICAO or Three-Character IATA airport codes.

METAR - Aviation Routine Weather Report
KY19 - Mandan, North Dakota
Updated at 10:15 AM GMT on August 21, 2014 (5:15 AM CDT):
METAR KY19 211015Z AUTO 29008KT 5SM BR CLR 17/17 A2977 RMK AO2
TAF - Terminal Area Forecast
KY19 - Mandan, North Dakota
Updated at 10:15 AM GMT on August 21, 2014 (5:15 AM CDT):
No TAF is currently available for this location.
Decoded:
No decoded TAF is available.
PIREP - Pilot Weather Report
KY19 - Mandan, North Dakota
Updated at 10:15 AM GMT on August 21, 2014 (5:15 AM CDT):
No PIREP is currently available for this location.
AIRMET - Airmens Meteorological Information
KY19 - Mandan, North Dakota
Updated at 10:15 AM GMT on August 21, 2014 (5:15 AM CDT):
No AIRMET is currently available for this location.
SIGMET - Significant Meteorological Information
KY19 - Mandan, North Dakota
Updated at 10:15 AM GMT on August 21, 2014 (5:15 AM CDT):
No SIGMET is currently available for this location.
NOTAM - Notice to Airmen
KY19 - Mandan, North Dakota
Updated at 10:15 AM GMT on August 21, 2014 (5:15 AM CDT):
No NOTAM is currently available for this location.
Forecast Area
KY19 - Mandan, North Dakota
Updated at 10:15 AM GMT on August 21, 2014 (5:15 AM CDT):
No NOTAM is currently available for this location.
Aviation Weather Maps